Burhaniye, Turkey
Current Conditions -  °F | °C
As of 1:50 PM on Friday 19 Dec 2014 (Local Time) from LTFD Reporting Station
Few Clouds Few Clouds  
Wind Chill: 57°   Ceiling: Unl
Heat Index: 57°   Visibility: 6mi
Dew Point: 43°   Wind: 16mph
Humidity: 59%   Direction: 90°E
Pressure: 30.18"   Gusts: NA
Location:  39.51°N, 26.98°E
Report Text: LTFD 191050Z 09014KT 9999 FEW035 14/06 Q1022
Loading
Personal Weather Stations






























Interactive Weather Map New forecast layout! Learn more

10-Day Weather Forecast

Advertisements
Track Severe Weather on mobile